Latest Weather Observations for Nuriootpa

IDS60801

Issued at 8:35 am CDT Thursday 23 October 2014 (issued every 30 minutes, with the page automatically refreshed every 10 minutes)

About weather observations | Map of weather stations | Latest weather observations for SA | Other Formats
Station Details ID: 023373 Name: NURIOOTPA VITICULTURAL Lat: -34.48 Lon: 139.01 Height: 275.0 m
Data from the previous 72 hours. | See also: Recent months at Nuriootpa
Date/Time
CDT
Temp
°C
App
Temp
°C
Dew
Point
Rel
Hum
%
Delta-T
°C
Wind Press
QNH
hPa
Press
MSL
hPa
Rain
since 9 am
mm
Dir
 
Spd
km/h
Gust
km/h
Spd
kts
Gust
kts
23/08:30am 14.3 13.0 11.1 81 1.7 ESE 9 13 5 7 1018.6 1018.3 0.0
23/08:00am 13.2 11.8 10.9 86 1.2 E 9 15 5 8 1018.7 1018.4 0.0
23/07:30am 11.9 12.4 11.7 99 0.1 CALM 0 0 0 0 1018.4 1018.1 0.0
23/07:00am 10.1 10.2 10.1 100 0.0 CALM 0 0 0 0 1018.1 1017.8 0.0
23/06:30am 9.9 8.7 9.7 99 0.1 N 6 7 3 4 1018.3 1018.0 0.0
23/06:00am 10.3 9.3 10.3 100 0.0 NNE 6 9 3 5 1018.1 1017.8 0.0
23/05:30am 10.5 9.9 10.3 99 0.1 ESE 4 9 2 5 1017.5 1017.3 0.0
23/05:00am 10.7 10.5 10.5 99 0.1 WSW 2 7 1 4 1017.6 1017.4 0.0
23/04:30am 11.0 9.9 10.8 99 0.1 SW 7 9 4 5 1017.6 1017.4 0.0
23/04:00am 11.1 10.0 10.7 97 0.2 W 7 7 4 4 1017.4 1017.2 0.0
23/03:30am 11.8 11.0 11.2 96 0.3 S 6 7 3 4 1017.3 1017.1 0.0
23/03:00am 12.4 11.3 11.8 96 0.3 SW 9 15 5 8 1018.1 1017.8 0.0
23/02:30am 12.6 11.2 12.2 97 0.2 WSW 11 17 6 9 1018.2 1017.9 0.0
23/02:00am 12.6 11.6 12.4 99 0.1 W 9 11 5 6 1018.6 1018.3 0.0
23/01:30am 11.2 10.9 10.2 94 0.5 SW 2 7 1 4 1018.7 1018.4 0.0
23/01:00am 11.9 10.8 10.8 93 0.6 WSW 7 11 4 6 1018.9 1018.6 0.0
23/12:30am 12.7 11.5 10.2 85 1.3 SSW 7 11 4 6 1019.3 1019.0 0.0
23/12:00am 12.7 11.1 10.2 85 1.3 SW 9 17 5 9 1019.4 1019.1 0.0
 
Date/Time
CDT
Temp
°C
App
Temp
°C
Dew
Point
Rel
Hum
%
Delta-T
°C
Wind Press
QNH
hPa
Press
MSL
hPa
Rain
since 9 am
mm
Dir
 
Spd
km/h
Gust
km/h
Spd
kts
Gust
kts
22/11:30pm 12.1 12.4 10.8 92 0.7 CALM 0 0 0 0 1019.5 1019.2 0.0
22/11:00pm 13.3 13.8 11.6 89 0.9 CALM 0 0 0 0 1019.7 1019.4 0.0
22/10:30pm 13.9 14.5 11.9 88 1.1 CALM 0 0 0 0 1019.8 1019.5 0.0
22/10:00pm 14.9 14.6 12.6 86 1.3 W 6 9 3 5 1019.7 1019.4 0.0
22/09:30pm 15.7 15.2 12.8 83 1.6 SW 7 9 4 5 1019.6 1019.3 0.0
22/09:00pm 16.6 15.8 12.9 79 2.1 W 9 11 5 6 1019.6 1019.3 0.0
22/08:30pm 17.8 17.1 13.2 74 2.6 W 9 13 5 7 1019.0 1018.7 0.0
22/08:00pm 18.8 17.9 12.6 67 3.5 W 9 11 5 6 1018.5 1018.2 0.0
22/07:30pm 20.6 19.0 12.9 61 4.4 W 13 19 7 10 1017.9 1017.7 0.0
22/07:00pm 22.7 21.2 13.1 54 5.6 W 13 17 7 9 1017.3 1017.1 0.0
22/06:30pm 24.2 23.0 12.9 49 6.6 SW 11 17 6 9 1016.9 1016.7 0.0
22/06:00pm 24.1 21.4 12.8 49 6.6 W 19 24 10 13 1016.8 1016.5 0.0
22/05:30pm 25.6 22.9 13.0 45 7.4 W 19 24 10 13 1016.5 1016.2 0.0
22/05:00pm 28.4 26.1 11.8 35 9.7 WSW 15 32 8 17 1016.2 1015.9 0.0
22/04:30pm 28.2 25.0 10.0 32 10.3 WSW 17 24 9 13 1016.3 1016.0 0.0
22/04:00pm 27.9 24.5 11.1 35 9.7 W 20 24 11 13 1016.4 1016.1 0.0
22/03:30pm 28.5 24.4 10.0 31 10.5 WSW 22 30 12 16 1016.4 1016.1 0.0
22/03:00pm 29.0 24.0 7.9 26 11.6 W 24 37 13 20 1016.2 1015.9 0.0
22/02:30pm 30.2 25.0 7.1 23 12.6 W 24 32 13 17 1016.5 1016.2 0.0
22/02:00pm 30.4 25.7 7.8 24 12.5 W 22 33 12 18 1016.7 1016.4 0.0
22/01:30pm 30.3 26.4 8.7 26 12.1 WSW 19 30 10 16 1016.9 1016.7 0.0
22/01:00pm 29.6 25.9 11.4 32 10.6 SW 22 32 12 17 1017.0 1016.8 0.0
22/12:30pm 30.9 27.3 8.3 24 12.6 WSW 17 28 9 15 1017.0 1016.8 0.0
22/12:00pm 31.3 27.0 7.9 23 13.0 W 20 28 11 15 1017.1 1016.9 0.0
22/11:30am 31.9 27.9 2.9 16 14.9 W 13 20 7 11 1017.2 1017.0 0.0
22/11:00am 30.7 27.1 3.2 17 14.1 WSW 11 19 6 10 1017.4 1017.2 0.0
22/10:30am 30.4 27.6 3.2 17 13.9 WNW 7 13 4 7 1017.6 1017.4 0.0
22/10:00am 29.0 25.5 1.3 16 13.6 WNW 9 13 5 7 1017.7 1017.5 0.0
22/09:30am 27.0 24.6 4.3 23 11.6 W 6 9 3 5 1017.6 1017.4 0.0
22/09:00am 26.4 24.6 3.4 22 11.5 WSW 2 9 1 5 1017.6 1017.4 0.0
22/08:30am 25.1 22.4 3.6 25 10.7 NW 7 11 4 6 1017.5 1017.3 0.0
22/08:00am 23.4 20.6 5.0 30 9.3 NE 9 11 5 6 1017.1 1016.9 0.0
22/07:30am 21.2 18.6 4.3 33 8.3 NE 7 11 4 6 1017.0 1016.8 0.0
22/07:00am 19.3 16.3 3.9 36 7.4 NNE 9 11 5 6 1017.1 1016.9 0.0
22/06:30am 17.4 14.9 5.0 44 6.0 NNE 7 9 4 5 1016.6 1016.3 0.0
22/06:00am 20.3 17.0 2.5 30 8.4 NE 9 13 5 7 1016.3 1016.0 0.0
22/05:30am 21.6 17.8 1.5 26 9.4 NNE 11 17 6 9 1016.2 1015.9 0.0
22/05:00am 22.0 17.7 0.8 24 9.8 N 13 19 7 10 1016.6 1016.3 0.0
22/04:30am 20.6 17.8 3.3 32 8.3 ENE 7 9 4 5 1016.2 1015.9 0.0
22/04:00am 22.4 20.5 2.6 27 9.5 ENE 2 7 1 4 1016.3 1016.0 0.0
22/03:30am 25.2 22.4 2.1 22 11.2 E 6 9 3 5 1016.3 1016.0 0.0
22/03:00am 24.3 21.6 2.5 24 10.6 ENE 6 9 3 5 1016.3 1016.0 0.0
22/02:30am 25.7 21.1 1.3 20 11.7 ENE 15 22 8 12 1016.5 1016.2 0.0
22/02:00am 25.9 21.6 1.0 19 11.9 NE 13 22 7 12 1016.7 1016.4 0.0
22/01:30am 26.7 22.8 1.2 19 12.3 ENE 11 17 6 9 1017.3 1017.1 0.0
22/01:00am 26.3 22.2 2.2 21 11.8 ENE 13 22 7 12 1018.1 1017.8 0.0
22/12:30am 26.7 22.1 1.5 19 12.2 ENE 15 20 8 11 1018.4 1018.1 0.0
22/12:24am 30.5 23.2 -2.9 11 15.4 NW 26 32 14 17 1018.4 1018.1 0.0
22/12:00am 24.9 20.9 2.6 23 10.9 ESE 13 15 7 8 1018.5 1018.2 0.0
 
Date/Time
CDT
Temp
°C
App
Temp
°C
Dew
Point
Rel
Hum
%
Delta-T
°C
Wind Press
QNH
hPa
Press
MSL
hPa
Rain
since 9 am
mm
Dir
 
Spd
km/h
Gust
km/h
Spd
kts
Gust
kts
21/11:30pm 24.1 20.5 2.7 24 10.4 ESE 11 13 6 7 1019.1 1018.8 0.0
21/11:00pm 25.0 21.7 4.4 26 10.4 ENE 11 13 6 7 1019.4 1019.1 0.0
21/10:30pm 27.2 23.7 3.3 21 12.0 N 11 20 6 11 1019.6 1019.3 0.0
21/10:00pm 30.8 23.7 -4.7 10 15.9 SW 24 39 13 21 1019.2 1018.9 0.0
21/09:30pm 25.5 22.7 3.0 23 11.1 NNE 7 13 4 7 1019.3 1019.0 0.0
21/09:00pm 25.2 22.6 3.1 24 10.9 NE 6 9 3 5 1019.0 1018.7 0.0
21/08:30pm 26.0 23.4 4.0 24 11.1 E 7 11 4 6 1018.6 1018.3 0.0
21/08:00pm 26.0 22.3 2.6 22 11.5 SE 11 15 6 8 1018.2 1017.9 0.0
21/07:30pm 27.5 24.6 4.6 23 11.8 SSE 9 11 5 6 1018.3 1018.0 0.0
21/07:00pm 29.3 26.2 3.4 19 13.2 SSW 9 15 5 8 1018.2 1017.9 0.0
21/06:30pm 30.6 27.0 3.0 17 14.1 S 11 17 6 9 1017.8 1017.6 0.0
21/06:00pm 31.6 27.2 0.1 13 15.4 SW 13 19 7 10 1017.7 1017.5 0.0
21/05:30pm 34.2 30.7 -1.5 10 17.3 W 7 11 4 6 1017.6 1017.4 0.0
21/05:00pm 34.0 30.0 -2.1 10 17.3 WSW 9 17 5 9 1017.7 1017.5 0.0
21/04:30pm 34.7 30.9 -1.0 10 17.5 WNW 9 15 5 8 1017.9 1017.7 0.0
21/04:00pm 33.8 29.6 1.9 13 16.3 NNW 13 26 7 14 1018.2 1017.9 0.0
21/03:30pm 35.1 30.2 2.3 12 17.0 NNW 17 22 9 12 1018.4 1018.1 0.0
21/03:00pm 33.7 28.1 -0.1 11 16.7 NNW 19 28 10 15 1018.7 1018.4 0.0
21/02:30pm 35.2 31.7 1.3 12 17.3 NNW 9 19 5 10 1019.1 1018.8 0.0
21/02:00pm 33.8 27.9 -0.8 11 16.9 N 20 24 11 13 1019.7 1019.4 0.0
21/01:30pm 33.1 27.6 0.9 13 16.1 ENE 19 26 10 14 1020.1 1019.9 0.0
21/01:00pm 32.1 27.5 1.3 14 15.4 NNE 15 26 8 14 1020.5 1020.3 0.0
21/12:30pm 32.2 26.2 1.1 13 15.5 NNE 22 33 12 18 1020.8 1020.6 0.0
21/12:00pm 31.6 26.1 0.5 13 15.3 NNE 19 30 10 16 1021.3 1021.1 0.0
21/11:30am 30.2 24.5 0.8 15 14.4 NE 20 33 11 18 1021.4 1021.2 0.0
21/11:00am 29.3 23.4 1.5 16 13.7 ENE 22 32 12 17 1021.6 1021.4 0.0
21/10:30am 27.3 21.0 1.3 18 12.6 NE 24 33 13 18 1022.1 1021.8 0.0
21/10:00am 26.2 20.3 1.5 20 11.9 NE 22 33 12 18 1022.1 1021.8 0.0
21/09:30am 24.4 18.4 1.1 21 11.0 NE 22 33 12 18 1022.2 1021.9 0.0
21/09:00am 22.7 16.7 1.0 24 10.1 NE 22 35 12 19 1022.2 1021.9 0.0
21/08:30am 23.0 17.6 1.2 23 10.2 NE 19 30 10 16 1022.3 1022.0 0.0
21/08:00am 21.9 17.3 1.6 26 9.5 NE 15 20 8 11 1022.2 1021.9 0.0
21/07:30am 20.3 16.1 1.8 29 8.6 NE 13 19 7 10 1022.0 1021.7 0.0
21/07:00am 19.1 14.5 1.3 30 8.1 NE 15 22 8 12 1021.7 1021.5 0.0
21/06:30am 18.6 14.0 1.4 31 7.8 NE 15 20 8 11 1021.5 1021.3 0.0
21/06:00am 19.1 14.5 1.3 30 8.1 NE 15 24 8 13 1021.4 1021.2 0.0
21/05:30am 19.2 14.2 1.5 30 8.1 ENE 17 24 9 13 1021.1 1020.9 0.0
21/05:00am 19.9 14.8 0.7 27 8.7 ENE 17 24 9 13 1021.0 1020.8 0.0
21/04:30am 19.7 14.6 1.0 28 8.5 ENE 17 24 9 13 1020.9 1020.7 0.0
21/04:00am 19.9 14.3 1.0 28 8.6 ENE 20 26 11 14 1021.0 1020.8 0.0
21/03:30am 20.3 14.7 1.1 28 8.8 ENE 20 26 11 14 1021.2 1021.0 0.0
21/03:00am 20.4 15.8 1.3 28 8.8 NE 15 24 8 13 1021.4 1021.2 0.0
21/02:30am 21.1 16.1 1.2 26 9.2 ENE 17 24 9 13 1021.5 1021.3 0.0
21/02:00am 21.7 16.2 0.9 25 9.6 ENE 19 28 10 15 1021.7 1021.5 0.0
21/01:30am 21.8 16.8 1.1 25 9.6 E 17 32 9 17 1022.0 1021.7 0.0
21/01:00am 22.1 17.8 0.9 24 9.8 E 13 22 7 12 1022.4 1022.1 0.0
21/12:30am 22.5 18.2 1.3 24 9.9 E 13 24 7 13 1022.6 1022.3 0.0
21/12:00am 22.3 18.5 2.0 26 9.6 E 11 19 6 10 1022.7 1022.4 0.0
 
Date/Time
CDT
Temp
°C
App
Temp
°C
Dew
Point
Rel
Hum
%
Delta-T
°C
Wind Press
QNH
hPa
Press
MSL
hPa
Rain
since 9 am
mm
Dir
 
Spd
km/h
Gust
km/h
Spd
kts
Gust
kts
20/11:30pm 22.1 18.4 2.6 27 9.3 E 11 20 6 11 1023.0 1022.7 0.0
20/11:00pm 22.4 18.3 2.2 26 9.6 E 13 19 7 10 1023.1 1022.9 0.0
20/10:30pm 22.2 18.2 2.8 28 9.3 E 13 22 7 12 1023.3 1023.1 0.0
20/10:00pm 22.5 17.8 3.0 28 9.4 E 17 22 9 12 1023.2 1023.0 0.0
20/09:30pm 22.6 18.0 3.5 28 9.3 E 17 24 9 13 1023.3 1023.1 0.0
20/09:00pm 23.0 18.8 3.6 28 9.5 E 15 24 8 13 1023.0 1022.7 0.0
20/08:30pm 23.6 19.0 3.7 27 9.8 E 17 24 9 13 1022.6 1022.3 0.0
20/08:00pm 24.1 19.6 4.0 27 10.0 E 17 24 9 13 1022.2 1021.9 0.0
20/07:30pm 25.3 21.3 2.9 23 11.0 E 13 20 7 11 1021.9 1021.6 0.0
20/07:00pm 26.8 22.0 2.4 20 12.0 E 17 28 9 15 1021.5 1021.3 0.0
20/06:30pm 27.1 23.2 3.4 21 11.9 E 13 19 7 10 1021.5 1021.3 0.0
20/06:00pm 27.5 22.4 3.2 21 12.2 E 19 26 10 14 1021.3 1021.1 0.0
20/05:30pm 28.6 23.9 2.9 19 12.9 E 17 30 9 16 1021.3 1021.1 0.0
20/05:00pm 28.3 23.2 3.0 19 12.7 E 19 26 10 14 1021.4 1021.2 0.0
20/04:30pm 28.8 23.6 2.6 18 13.1 ENE 19 28 10 15 1021.5 1021.3 0.0
20/04:00pm 28.7 23.8 1.7 17 13.3 E 17 24 9 13 1021.7 1021.5 0.0
20/03:30pm 28.2 23.4 2.8 19 12.7 ENE 17 26 9 14 1022.2 1021.9 0.0
20/03:00pm 27.8 23.0 2.7 20 12.5 ENE 17 26 9 14 1022.6 1022.3 0.0
20/02:30pm 27.4 22.5 4.3 22 11.8 ENE 19 26 10 14 1023.2 1023.0 0.0
20/02:00pm 25.8 21.5 5.1 26 10.7 ENE 17 24 9 13 1023.5 1023.3 0.0
20/01:30pm 25.3 20.5 5.8 28 10.1 ENE 20 28 11 15 1023.9 1023.7 0.0
20/01:00pm 23.8 19.2 6.5 33 9.0 ENE 20 28 11 15 1024.2 1024.0 0.0
20/12:30pm 23.2 19.0 7.4 36 8.3 ENE 19 30 10 16 1024.4 1024.2 0.0
20/12:00pm 21.6 17.4 7.4 40 7.4 ENE 19 30 10 16 1024.8 1024.6 0.0
20/11:30am 20.7 16.4 7.9 43 6.7 ENE 20 30 11 16 1025.2 1025.0 0.0
20/11:00am 19.0 14.7 8.0 49 5.7 ENE 20 33 11 18 1025.5 1025.3 0.0
20/10:30am 18.2 13.5 7.9 51 5.3 ENE 22 35 12 19 1025.8 1025.5 0.0
20/10:00am 17.5 13.3 8.2 54 4.8 ENE 20 32 11 17 1026.0 1025.7 0.0
20/09:30am 16.5 12.8 7.8 56 4.4 E 17 32 9 17 1026.0 1025.7 0.0
20/09:00am 14.6 10.6 8.1 65 3.3 E 19 32 10 17 1026.0 1025.7 0.0

Other Formats:

Comma delimited format used in spreadsheet applications
http://www.bom.gov.au/fwo/IDS60801/IDS60801.94681.axf

JavaScript Object Notation format (JSON) in row-major order
http://www.bom.gov.au/fwo/IDS60801/IDS60801.94681.json